createdAt,value
2023-05-21T00:01:25.900Z,6.47
2023-05-21T00:03:52.714Z,4.90
2023-05-21T00:06:21.011Z,4.72
2023-05-21T00:11:14.164Z,4.13
2023-05-21T00:13:40.983Z,8.82
2023-05-21T00:16:07.930Z,4.13
2023-05-21T00:18:34.434Z,7.90
2023-05-21T00:21:01.646Z,3.80
2023-05-21T00:23:28.530Z,4.65
2023-05-21T00:25:55.090Z,4.45
2023-05-21T00:28:21.648Z,4.80
2023-05-21T00:30:48.375Z,4.65
2023-05-21T00:33:15.045Z,7.75
2023-05-21T00:35:41.750Z,5.47
2023-05-21T00:38:10.122Z,4.57
2023-05-21T00:40:36.605Z,4.93
2023-05-21T00:43:03.421Z,4.03
2023-05-21T00:45:30.106Z,3.67
2023-05-21T00:47:56.853Z,4.95
2023-05-21T00:50:23.592Z,7.30
2023-05-21T00:52:50.531Z,7.00
2023-05-21T00:55:17.201Z,4.68
2023-05-21T00:57:43.791Z,4.32
2023-05-21T01:00:10.991Z,4.68
2023-05-21T01:02:38.553Z,6.45
2023-05-21T01:05:06.641Z,6.90
2023-05-21T01:07:35.154Z,7.03
2023-05-21T01:10:09.494Z,7.47
2023-05-21T01:12:38.120Z,7.82
2023-05-21T01:15:05.766Z,4.85
2023-05-21T01:17:34.120Z,5.20
2023-05-21T01:20:01.798Z,6.10
2023-05-21T01:22:32.363Z,6.88
2023-05-21T01:24:58.957Z,5.28
2023-05-21T01:27:25.677Z,6.45
2023-05-21T01:29:52.210Z,4.90
2023-05-21T01:33:06.341Z,4.70
2023-05-21T01:35:36.175Z,5.53
2023-05-21T01:38:22.836Z,5.53
2023-05-21T01:40:55.222Z,5.20
2023-05-21T01:43:23.489Z,5.95
2023-05-21T01:45:54.692Z,7.55
2023-05-21T01:48:23.765Z,4.72
2023-05-21T01:50:51.273Z,7.82
2023-05-21T01:53:17.954Z,4.80
2023-05-21T01:55:44.693Z,5.57
2023-05-21T01:58:11.579Z,4.90
2023-05-21T02:00:40.030Z,5.75
2023-05-21T02:05:33.149Z,6.32
2023-05-21T02:08:00.124Z,5.18
2023-05-21T02:10:26.847Z,5.88
2023-05-21T02:12:53.315Z,9.07
2023-05-21T02:15:19.877Z,5.15
2023-05-21T02:17:46.794Z,4.60
2023-05-21T02:20:14.593Z,6.07
2023-05-21T02:22:43.299Z,5.97
2023-05-21T02:25:11.032Z,7.05
2023-05-21T02:27:39.232Z,6.60
2023-05-21T02:30:08.481Z,4.70
2023-05-21T02:32:35.972Z,5.78
2023-05-21T02:35:04.108Z,6.03
2023-05-21T02:37:34.933Z,7.88
2023-05-21T02:40:04.237Z,7.60
2023-05-21T02:42:30.781Z,6.22
2023-05-21T02:44:57.350Z,5.45
2023-05-21T02:47:25.512Z,6.25
2023-05-21T02:49:53.021Z,7.05
2023-05-21T02:52:22.578Z,6.22
2023-05-21T02:54:49.385Z,6.63
2023-05-21T02:57:15.826Z,10.88
2023-05-21T02:59:42.338Z,6.20
2023-05-21T03:02:09.132Z,6.95
2023-05-21T03:04:38.924Z,6.90
2023-05-21T03:07:06.156Z,8.60
2023-05-21T03:09:32.845Z,8.50
2023-05-21T03:11:59.311Z,6.10
2023-05-21T03:14:25.762Z,5.35
2023-05-21T03:16:52.317Z,6.25
2023-05-21T03:19:19.036Z,6.90
2023-05-21T03:21:45.611Z,6.60
2023-05-21T03:24:13.749Z,6.55
2023-05-21T03:26:40.329Z,6.75
2023-05-21T03:29:06.841Z,6.03
2023-05-21T03:31:33.416Z,6.90
2023-05-21T03:34:00.066Z,7.13
2023-05-21T03:36:26.583Z,7.07
2023-05-21T03:38:53.150Z,8.43
2023-05-21T03:41:19.671Z,5.68
2023-05-21T03:43:46.066Z,6.72
2023-05-21T03:46:12.683Z,6.32
2023-05-21T03:48:39.248Z,7.60
2023-05-21T03:51:05.737Z,6.90
2023-05-21T03:53:34.228Z,7.10
2023-05-21T03:58:28.149Z,8.68
2023-05-21T04:00:54.694Z,6.05
2023-05-21T04:03:21.264Z,6.32
2023-05-21T04:05:48.670Z,8.15
2023-05-21T04:08:16.065Z,7.30
2023-05-21T04:10:42.560Z,5.38
2023-05-21T04:13:09.023Z,8.32
2023-05-21T04:15:35.668Z,6.82
2023-05-21T04:18:02.454Z,6.35
2023-05-21T04:20:29.026Z,5.53
2023-05-21T04:22:55.631Z,9.20
2023-05-21T04:25:23.192Z,6.38
2023-05-21T04:27:50.195Z,7.90
2023-05-21T04:30:16.758Z,7.95
2023-05-21T04:32:45.961Z,7.82
2023-05-21T04:35:15.159Z,6.00
2023-05-21T04:37:42.222Z,5.38
2023-05-21T04:40:09.722Z,7.88
2023-05-21T04:42:36.449Z,5.97
2023-05-21T04:45:03.652Z,7.40
2023-05-21T04:47:30.469Z,8.02
2023-05-21T04:49:57.234Z,6.40
2023-05-21T04:52:25.076Z,7.90
2023-05-21T04:54:51.835Z,6.78
2023-05-21T04:57:18.357Z,9.38
2023-05-21T04:59:45.077Z,7.18
2023-05-21T05:02:11.519Z,8.43
2023-05-21T05:04:38.185Z,6.05
2023-05-21T05:07:04.905Z,7.57
2023-05-21T05:09:31.763Z,7.68
2023-05-21T05:11:58.232Z,6.28
2023-05-21T05:14:24.746Z,6.78
2023-05-21T05:16:51.386Z,7.53
2023-05-21T05:19:18.197Z,9.77
2023-05-21T05:21:44.760Z,7.88
2023-05-21T05:24:11.243Z,7.35
2023-05-21T05:26:37.768Z,6.45
2023-05-21T05:29:04.270Z,9.38
2023-05-21T05:31:31.097Z,6.90
2023-05-21T05:33:58.407Z,7.68
2023-05-21T05:36:25.255Z,7.75
2023-05-21T05:38:52.044Z,6.70
2023-05-21T05:41:18.871Z,8.90
2023-05-21T05:43:46.026Z,8.98
2023-05-21T05:46:12.837Z,8.02
2023-05-21T05:48:40.044Z,7.53
2023-05-21T05:51:06.628Z,10.25
2023-05-21T05:53:33.249Z,7.45
2023-05-21T05:55:59.947Z,10.38
2023-05-21T05:58:26.732Z,10.88
2023-05-21T06:00:53.630Z,6.90
2023-05-21T06:03:20.627Z,7.05
2023-05-21T06:05:47.637Z,9.52
2023-05-21T06:08:14.221Z,7.80
2023-05-21T06:10:40.848Z,8.77
2023-05-21T06:13:08.349Z,6.32
2023-05-21T06:15:35.255Z,6.97
2023-05-21T06:18:02.389Z,8.10
2023-05-21T06:20:30.000Z,8.23
2023-05-21T06:22:56.515Z,10.13
2023-05-21T06:25:23.442Z,5.90
2023-05-21T06:27:49.983Z,8.25
2023-05-21T06:30:16.440Z,9.85
2023-05-21T06:32:43.598Z,8.80
2023-05-21T06:35:10.232Z,7.38
2023-05-21T06:37:36.973Z,8.30
2023-05-21T06:40:03.873Z,9.90
2023-05-21T06:42:31.074Z,9.70
2023-05-21T06:44:57.674Z,10.07
2023-05-21T06:47:24.187Z,9.32
2023-05-21T06:49:50.726Z,9.80
2023-05-21T06:52:17.283Z,8.80
2023-05-21T06:54:43.792Z,9.15
2023-05-21T06:57:10.347Z,7.82
2023-05-21T06:59:36.852Z,10.98
2023-05-21T07:02:04.748Z,11.38
2023-05-21T07:04:31.458Z,8.25
2023-05-21T07:06:57.911Z,11.02
2023-05-21T07:09:24.439Z,10.18
2023-05-21T07:11:53.012Z,14.05
2023-05-21T07:14:19.638Z,37.08
2023-05-21T07:16:46.353Z,8.77
2023-05-21T07:19:13.068Z,7.28
2023-05-21T07:21:39.673Z,8.88
2023-05-21T07:24:09.351Z,9.50
2023-05-21T07:26:35.964Z,9.48
2023-05-21T07:29:02.493Z,10.88
2023-05-21T07:31:29.132Z,8.25
2023-05-21T07:33:55.940Z,9.40
2023-05-21T07:36:22.429Z,7.80
2023-05-21T07:38:48.926Z,8.35
2023-05-21T07:41:18.400Z,9.15
2023-05-21T07:43:45.076Z,11.68
2023-05-21T07:46:11.797Z,8.57
2023-05-21T07:48:38.499Z,9.00
2023-05-21T07:51:05.426Z,10.20
2023-05-21T07:53:33.311Z,8.25
2023-05-21T07:56:00.638Z,10.75
2023-05-21T07:58:27.098Z,9.75
2023-05-21T08:00:53.963Z,9.38
2023-05-21T08:03:21.095Z,12.00
2023-05-21T08:05:50.930Z,7.70
2023-05-21T08:08:18.980Z,7.28
2023-05-21T08:10:46.683Z,9.45
2023-05-21T08:13:13.749Z,10.48
2023-05-21T08:15:40.197Z,7.65
2023-05-21T08:18:06.805Z,9.57
2023-05-21T08:20:33.621Z,10.20
2023-05-21T08:23:00.383Z,11.05
2023-05-21T08:25:27.618Z,14.07
2023-05-21T08:27:54.406Z,8.10
2023-05-21T08:30:21.122Z,9.15
2023-05-21T08:32:48.336Z,9.85
2023-05-21T08:35:14.958Z,8.57
2023-05-21T08:37:41.538Z,9.32
2023-05-21T08:40:09.245Z,10.70
2023-05-21T08:42:46.719Z,14.23
2023-05-21T08:45:14.529Z,8.70
2023-05-21T08:47:44.989Z,8.88
2023-05-21T08:50:13.363Z,9.98
2023-05-21T08:52:40.635Z,9.82
2023-05-21T08:55:08.690Z,10.53
2023-05-21T09:00:02.735Z,11.70
2023-05-21T09:02:34.116Z,11.23
2023-05-21T09:05:03.241Z,9.63
2023-05-21T09:07:31.736Z,11.48
2023-05-21T09:10:05.707Z,12.82
2023-05-21T09:12:32.870Z,9.18
2023-05-21T09:15:01.350Z,9.20
2023-05-21T09:17:28.201Z,12.30
2023-05-21T09:20:24.878Z,11.73
2023-05-21T09:22:51.660Z,10.95
2023-05-21T09:25:24.793Z,8.02
2023-05-21T09:27:51.528Z,10.48
2023-05-21T09:30:21.029Z,11.38
2023-05-21T09:32:56.536Z,13.18
2023-05-21T09:35:23.302Z,9.45
2023-05-21T09:37:52.388Z,12.40
2023-05-21T09:40:20.965Z,10.73
2023-05-21T09:42:48.774Z,11.15
2023-05-21T09:45:22.417Z,10.20
2023-05-21T09:47:50.271Z,14.80
2023-05-21T09:50:25.118Z,10.52
2023-05-21T09:52:53.012Z,10.35
2023-05-21T09:57:50.736Z,14.25
2023-05-21T10:00:21.730Z,12.00
2023-05-21T10:02:50.009Z,14.73
2023-05-21T10:05:17.549Z,13.55
2023-05-21T10:07:50.294Z,12.68
2023-05-21T10:10:22.910Z,12.73
2023-05-21T10:12:58.945Z,12.43
2023-05-21T10:15:28.138Z,15.43
2023-05-21T10:17:56.236Z,15.05
2023-05-21T10:20:23.096Z,15.15
2023-05-21T10:22:50.793Z,13.07
2023-05-21T10:25:17.502Z,16.65
2023-05-21T10:27:45.093Z,13.82
2023-05-21T10:30:12.026Z,13.30
2023-05-21T10:32:40.529Z,14.82
2023-05-21T10:35:08.822Z,15.05
2023-05-21T10:37:35.691Z,14.30
2023-05-21T10:40:02.258Z,13.35
2023-05-21T10:42:31.812Z,16.35
2023-05-21T10:45:13.893Z,16.38
2023-05-21T10:47:56.971Z,12.65
2023-05-21T10:50:45.100Z,13.77
2023-05-21T10:53:34.347Z,13.20
2023-05-21T10:56:46.938Z,14.40
2023-05-21T10:59:34.157Z,11.63
2023-05-21T11:02:01.756Z,13.40
2023-05-21T11:04:30.591Z,13.90
2023-05-21T11:06:59.569Z,12.32
2023-05-21T11:09:27.000Z,18.52
2023-05-21T11:11:57.975Z,13.02
2023-05-21T11:14:39.528Z,15.38
2023-05-21T11:17:09.367Z,12.88
2023-05-21T11:19:38.366Z,14.23
2023-05-21T11:22:10.745Z,12.82
2023-05-21T11:24:39.593Z,11.70
2023-05-21T11:27:07.008Z,15.43
2023-05-21T11:29:41.699Z,13.60
2023-05-21T11:32:09.774Z,13.00
2023-05-21T11:34:47.082Z,14.40
2023-05-21T11:37:16.546Z,13.07
2023-05-21T11:39:50.926Z,12.25
2023-05-21T11:42:39.571Z,16.17
2023-05-21T11:45:07.236Z,13.85
2023-05-21T11:50:02.989Z,13.33
2023-05-21T11:52:33.192Z,15.68
2023-05-21T11:55:00.019Z,13.13
2023-05-21T11:57:31.841Z,14.27
2023-05-21T12:00:01.390Z,11.15
2023-05-21T12:02:32.561Z,12.52
2023-05-21T12:05:00.330Z,12.43
2023-05-21T12:07:29.734Z,13.05
2023-05-21T12:09:56.670Z,12.95
2023-05-21T12:12:26.332Z,11.73
2023-05-21T12:14:55.899Z,11.77
2023-05-21T12:17:24.592Z,13.80
2023-05-21T12:19:53.576Z,11.25
2023-05-21T12:22:21.445Z,10.38
2023-05-21T12:24:48.817Z,11.27
2023-05-21T12:27:16.989Z,11.73
2023-05-21T12:29:45.558Z,10.48
2023-05-21T12:32:13.773Z,10.55
2023-05-21T12:34:57.103Z,11.07
2023-05-21T12:37:27.958Z,14.00
2023-05-21T12:39:56.087Z,11.77
2023-05-21T12:42:27.366Z,10.95
2023-05-21T12:44:53.916Z,12.57
2023-05-21T12:47:24.430Z,11.15
2023-05-21T12:49:55.366Z,12.82
2023-05-21T12:52:22.228Z,11.40
2023-05-21T12:54:54.259Z,13.43
2023-05-21T12:57:25.520Z,11.75
2023-05-21T13:00:00.587Z,13.85
2023-05-21T13:02:29.504Z,11.95
2023-05-21T13:04:58.885Z,12.85
2023-05-21T13:07:26.637Z,11.10
2023-05-21T13:09:54.151Z,13.18
2023-05-21T13:14:50.789Z,11.27
2023-05-21T13:17:18.407Z,13.55
2023-05-21T13:22:12.949Z,12.75
2023-05-21T13:24:39.889Z,11.07
2023-05-21T13:27:06.740Z,12.90
2023-05-21T13:29:33.252Z,10.50
2023-05-21T13:31:59.901Z,10.70
2023-05-21T13:34:26.344Z,13.57
2023-05-21T13:36:52.805Z,14.15
2023-05-21T13:39:19.410Z,11.07
2023-05-21T13:41:47.462Z,10.95
2023-05-21T13:44:13.904Z,13.82
2023-05-21T13:46:40.523Z,11.02
2023-05-21T13:49:07.102Z,11.50
2023-05-21T13:51:39.031Z,11.23
2023-05-21T13:54:06.150Z,11.73
2023-05-21T13:56:33.789Z,15.02
2023-05-21T13:59:01.630Z,10.65
2023-05-21T14:01:28.293Z,10.77
2023-05-21T14:03:54.776Z,10.53
2023-05-21T14:06:21.362Z,11.90
2023-05-21T14:08:47.968Z,13.37
2023-05-21T14:11:14.395Z,13.25
2023-05-21T14:13:41.319Z,15.10
2023-05-21T14:16:08.109Z,11.82
2023-05-21T14:18:34.683Z,10.93
2023-05-21T14:21:02.106Z,12.48
2023-05-21T14:25:55.085Z,10.93
2023-05-21T14:28:21.754Z,11.20
2023-05-21T14:30:48.321Z,12.47
2023-05-21T14:33:14.935Z,11.18
2023-05-21T14:35:43.853Z,14.70
2023-05-21T14:38:11.014Z,12.10
2023-05-21T14:40:37.575Z,13.70
2023-05-21T14:43:04.186Z,12.98
2023-05-21T14:45:33.022Z,12.95
2023-05-21T14:47:59.503Z,11.43
2023-05-21T14:50:26.045Z,12.38
2023-05-21T14:52:52.658Z,11.98
2023-05-21T14:55:22.210Z,15.07
2023-05-21T14:57:52.130Z,10.70
2023-05-21T15:00:19.053Z,12.27
2023-05-21T15:02:48.349Z,12.27
2023-05-21T15:05:18.285Z,12.38
2023-05-21T15:07:44.768Z,11.77
2023-05-21T15:10:11.839Z,13.00
2023-05-21T15:12:39.664Z,12.32
2023-05-21T15:15:08.286Z,11.23
2023-05-21T15:17:35.295Z,11.40
2023-05-21T15:20:04.465Z,13.48
2023-05-21T15:22:31.656Z,13.63
2023-05-21T15:24:58.176Z,11.35
2023-05-21T15:27:25.255Z,12.45
2023-05-21T15:29:52.004Z,13.70
2023-05-21T15:32:20.789Z,12.73
2023-05-21T15:34:48.657Z,11.23
2023-05-21T15:37:16.063Z,12.52
2023-05-21T15:39:43.387Z,13.07
2023-05-21T15:42:14.493Z,12.32
2023-05-21T15:44:41.789Z,14.02
2023-05-21T15:47:08.508Z,11.85
2023-05-21T15:49:37.994Z,13.10
2023-05-21T15:52:12.831Z,11.60
2023-05-21T15:54:41.681Z,11.77
2023-05-21T15:57:08.147Z,10.88
2023-05-21T15:59:34.724Z,10.85
2023-05-21T16:02:01.437Z,12.73
2023-05-21T16:04:27.917Z,14.03
2023-05-21T16:06:54.397Z,16.42
2023-05-21T16:09:20.968Z,13.05
2023-05-21T16:11:48.796Z,11.60
2023-05-21T16:14:15.464Z,11.02
2023-05-21T16:16:41.956Z,12.10
2023-05-21T16:19:08.568Z,12.52
2023-05-21T16:21:35.055Z,13.87
2023-05-21T16:24:03.187Z,12.60
2023-05-21T16:26:30.141Z,15.80
2023-05-21T16:28:56.911Z,11.30
2023-05-21T16:31:23.453Z,12.60
2023-05-21T16:33:50.621Z,14.20
2023-05-21T16:36:18.050Z,12.80
2023-05-21T16:41:14.113Z,10.48
2023-05-21T16:43:41.138Z,11.30
2023-05-21T16:46:07.768Z,12.75
2023-05-21T16:48:38.381Z,13.27
2023-05-21T16:51:05.033Z,12.05
2023-05-21T16:53:31.510Z,11.35
2023-05-21T16:55:59.040Z,13.45
2023-05-21T16:58:25.571Z,11.63
2023-05-21T17:00:52.620Z,14.10
2023-05-21T17:03:20.054Z,14.15
2023-05-21T17:05:46.942Z,13.20
2023-05-21T17:08:13.846Z,13.90
2023-05-21T17:10:40.835Z,12.93
2023-05-21T17:13:21.730Z,13.45
2023-05-21T17:15:50.798Z,12.63
2023-05-21T17:18:17.764Z,13.73
2023-05-21T17:20:44.324Z,14.57
2023-05-21T17:23:11.769Z,18.80
2023-05-21T17:28:05.664Z,14.90
2023-05-21T17:30:32.103Z,13.80
2023-05-21T17:32:58.647Z,13.50
2023-05-21T17:35:25.205Z,13.60
2023-05-21T17:37:53.301Z,13.60
2023-05-21T17:40:21.427Z,13.32
2023-05-21T17:42:48.048Z,16.33
2023-05-21T17:45:14.552Z,13.77
2023-05-21T17:47:41.199Z,15.23
2023-05-21T17:50:08.496Z,12.35
2023-05-21T17:52:34.952Z,12.68
2023-05-21T17:55:01.714Z,14.25
2023-05-21T17:57:28.239Z,13.70
2023-05-21T17:59:55.482Z,14.73
2023-05-21T18:02:23.541Z,16.35
2023-05-21T18:04:50.098Z,15.27
2023-05-21T18:07:16.690Z,16.27
2023-05-21T18:09:43.212Z,12.55
2023-05-21T18:12:09.793Z,12.27
2023-05-21T18:14:36.259Z,14.18
2023-05-21T18:17:02.873Z,13.20
2023-05-21T18:19:30.537Z,16.35
2023-05-21T18:21:57.316Z,12.85
2023-05-21T18:24:31.341Z,14.48
2023-05-21T18:26:57.862Z,14.98
2023-05-21T18:29:24.642Z,16.15
2023-05-21T18:31:51.680Z,18.35
2023-05-21T18:34:18.840Z,13.95
2023-05-21T18:36:46.894Z,14.20
2023-05-21T18:39:13.657Z,12.43
2023-05-21T18:41:40.986Z,13.95
2023-05-21T18:44:07.592Z,12.45
2023-05-21T18:46:34.799Z,14.38
2023-05-21T18:49:01.647Z,12.63
2023-05-21T18:51:31.944Z,13.98
2023-05-21T18:53:58.915Z,14.43
2023-05-21T18:56:26.178Z,13.20
2023-05-21T18:58:52.714Z,13.82
2023-05-21T19:01:19.798Z,14.18
2023-05-21T19:03:46.343Z,12.70
2023-05-21T19:06:15.807Z,17.30
2023-05-21T19:08:42.687Z,13.00
2023-05-21T19:11:09.855Z,16.65
2023-05-21T19:13:36.572Z,59.75
2023-05-21T19:16:03.747Z,22.25
2023-05-21T19:18:32.240Z,17.17
2023-05-21T19:21:00.679Z,15.77
2023-05-21T19:23:27.500Z,14.30
2023-05-21T19:25:54.305Z,15.05
2023-05-21T19:28:24.009Z,14.68
2023-05-21T19:30:50.701Z,17.15
2023-05-21T19:33:18.115Z,25.75
2023-05-21T19:35:47.987Z,22.92
2023-05-21T19:38:15.303Z,16.85
2023-05-21T19:40:41.780Z,14.52
2023-05-21T19:43:08.261Z,17.17
2023-05-21T19:45:34.846Z,14.88
2023-05-21T19:48:01.608Z,14.15
2023-05-21T19:50:28.866Z,15.20
2023-05-21T19:52:57.354Z,16.08
2023-05-21T19:55:27.108Z,15.23
2023-05-21T19:57:53.639Z,17.70
2023-05-21T20:00:20.535Z,15.93
2023-05-21T20:02:47.062Z,14.60
2023-05-21T20:05:13.699Z,13.75
2023-05-21T20:07:41.302Z,19.75
2023-05-21T20:10:08.766Z,16.70
2023-05-21T20:12:35.758Z,14.18
2023-05-21T20:15:03.458Z,14.75
2023-05-21T20:17:30.560Z,15.07
2023-05-21T20:19:58.992Z,18.88
2023-05-21T20:22:25.572Z,17.08
2023-05-21T20:24:52.074Z,17.92
2023-05-21T20:27:19.370Z,17.60
2023-05-21T20:29:46.261Z,14.88
2023-05-21T20:32:13.017Z,15.30
2023-05-21T20:34:54.193Z,13.40
2023-05-21T20:37:27.992Z,14.02
2023-05-21T20:39:58.076Z,13.93
2023-05-21T20:42:28.721Z,16.88
2023-05-21T20:44:58.801Z,15.30
2023-05-21T20:47:29.928Z,16.92
2023-05-21T20:49:57.765Z,14.77
2023-05-21T20:52:24.864Z,13.82
2023-05-21T20:54:54.961Z,16.08
2023-05-21T20:57:26.198Z,15.23
2023-05-21T20:59:53.363Z,16.35
2023-05-21T21:02:20.508Z,15.85
2023-05-21T21:04:49.139Z,17.98
2023-05-21T21:07:18.058Z,17.08
2023-05-21T21:09:45.435Z,17.48
2023-05-21T21:12:24.775Z,20.67
2023-05-21T21:14:52.307Z,19.50
2023-05-21T21:17:18.839Z,19.52
2023-05-21T21:19:45.389Z,17.52
2023-05-21T21:22:12.041Z,18.88
2023-05-21T21:24:38.561Z,18.35
2023-05-21T21:27:05.396Z,17.75
2023-05-21T21:29:32.019Z,17.67
2023-05-21T21:31:58.539Z,18.10
2023-05-21T21:34:25.321Z,19.90
2023-05-21T21:36:51.870Z,19.98
2023-05-21T21:39:18.364Z,18.33
2023-05-21T21:41:45.650Z,20.20
2023-05-21T21:44:12.411Z,17.33
2023-05-21T21:46:39.098Z,17.65
2023-05-21T21:49:05.658Z,21.15
2023-05-21T21:51:32.240Z,16.45
2023-05-21T21:53:58.697Z,18.25
2023-05-21T21:56:25.155Z,17.80
2023-05-21T21:58:51.731Z,22.13
2023-05-21T22:01:18.957Z,18.73
2023-05-21T22:03:45.682Z,19.85
2023-05-21T22:06:12.357Z,18.08
2023-05-21T22:08:38.786Z,16.45
2023-05-21T22:11:05.528Z,18.92
2023-05-21T22:13:31.995Z,21.40
2023-05-21T22:15:58.580Z,17.92
2023-05-21T22:18:39.565Z,17.20
2023-05-21T22:21:09.500Z,21.80
2023-05-21T22:23:37.118Z,19.25
2023-05-21T22:26:03.737Z,22.30
2023-05-21T22:28:30.256Z,19.50
2023-05-21T22:30:56.743Z,28.42
2023-05-21T22:33:23.241Z,45.72
2023-05-21T22:35:49.876Z,32.38
2023-05-21T22:38:17.816Z,28.77
2023-05-21T22:40:44.352Z,24.40
2023-05-21T22:43:11.019Z,31.58
2023-05-21T22:45:38.401Z,29.60
2023-05-21T22:48:08.523Z,22.70
2023-05-21T22:50:36.176Z,22.70
2023-05-21T22:53:02.905Z,23.67
2023-05-21T22:55:29.646Z,18.70
2023-05-21T22:57:56.232Z,19.33
2023-05-21T23:00:22.944Z,22.25
2023-05-21T23:02:50.765Z,18.73
2023-05-21T23:05:19.830Z,18.08
2023-05-21T23:07:46.595Z,20.17
2023-05-21T23:10:13.047Z,19.83
2023-05-21T23:12:40.856Z,22.55
2023-05-21T23:15:09.760Z,26.60
2023-05-21T23:17:37.201Z,25.58
2023-05-21T23:20:04.710Z,21.92
2023-05-21T23:22:31.632Z,28.33
2023-05-21T23:24:58.216Z,24.85
2023-05-21T23:27:24.732Z,25.55
2023-05-21T23:29:51.315Z,27.88
2023-05-21T23:32:18.032Z,26.83
2023-05-21T23:34:44.722Z,23.52
2023-05-21T23:37:11.377Z,25.55
2023-05-21T23:39:37.935Z,26.77
2023-05-21T23:42:04.970Z,27.33
2023-05-21T23:44:31.581Z,24.48
2023-05-21T23:46:58.049Z,29.10
2023-05-21T23:49:24.580Z,27.40
2023-05-21T23:51:51.120Z,31.45
2023-05-21T23:54:17.703Z,31.48
2023-05-21T23:56:44.260Z,28.67
2023-05-21T23:59:10.957Z,28.45
